sensor_id;sensor_type;location;lat;lon;timestamp;P1;durP1;ratioP1;P2;durP2;ratioP2
68214;SDS011;55036;52.138;5.236;2023-05-10T00:00:46;28.70;;;18.42;;
68214;SDS011;55036;52.138;5.236;2023-05-10T00:03:12;31.05;;;18.08;;
68214;SDS011;55036;52.138;5.236;2023-05-10T00:05:39;31.80;;;18.10;;
68214;SDS011;55036;52.138;5.236;2023-05-10T00:08:06;35.92;;;18.58;;
68214;SDS011;55036;52.138;5.236;2023-05-10T00:10:33;33.10;;;18.58;;
68214;SDS011;55036;52.138;5.236;2023-05-10T00:12:59;37.28;;;19.27;;
68214;SDS011;55036;52.138;5.236;2023-05-10T00:46:36;34.75;;;20.10;;
68214;SDS011;55036;52.138;5.236;2023-05-10T00:49:03;40.13;;;22.80;;
68214;SDS011;55036;52.138;5.236;2023-05-10T00:51:31;41.70;;;22.48;;
68214;SDS011;55036;52.138;5.236;2023-05-10T00:53:59;49.03;;;25.50;;
68214;SDS011;55036;52.138;5.236;2023-05-10T00:56:25;43.83;;;24.75;;
68214;SDS011;55036;52.138;5.236;2023-05-10T00:58:52;44.67;;;24.67;;
68214;SDS011;55036;52.138;5.236;2023-05-10T01:01:19;42.05;;;23.75;;
68214;SDS011;55036;52.138;5.236;2023-05-10T01:03:46;47.90;;;24.67;;
68214;SDS011;55036;52.138;5.236;2023-05-10T01:06:13;46.78;;;25.88;;
68214;SDS011;55036;52.138;5.236;2023-05-10T01:08:40;45.78;;;26.08;;
68214;SDS011;55036;52.138;5.236;2023-05-10T01:11:07;55.55;;;27.15;;
68214;SDS011;55036;52.138;5.236;2023-05-10T01:13:35;49.95;;;26.17;;
68214;SDS011;55036;52.138;5.236;2023-05-10T01:16:04;51.88;;;27.67;;
68214;SDS011;55036;52.138;5.236;2023-05-10T01:18:41;60.97;;;26.85;;
68214;SDS011;55036;52.138;5.236;2023-05-10T01:21:30;50.92;;;28.10;;
68214;SDS011;55036;52.138;5.236;2023-05-10T01:24:28;48.42;;;26.58;;
68214;SDS011;55036;52.138;5.236;2023-05-10T01:33:09;63.50;;;27.13;;
68214;SDS011;55036;52.138;5.236;2023-05-10T01:35:59;66.28;;;28.95;;
68214;SDS011;55036;52.138;5.236;2023-05-10T01:38:38;62.50;;;29.00;;
68214;SDS011;55036;52.138;5.236;2023-05-10T01:46:38;73.30;;;30.35;;
68214;SDS011;55036;52.138;5.236;2023-05-10T01:51:47;64.75;;;28.42;;
68214;SDS011;55036;52.138;5.236;2023-05-10T01:54:19;58.38;;;27.35;;
68214;SDS011;55036;52.138;5.236;2023-05-10T01:56:48;60.97;;;28.98;;
68214;SDS011;55036;52.138;5.236;2023-05-10T01:59:21;83.88;;;28.23;;
68214;SDS011;55036;52.138;5.236;2023-05-10T02:01:48;64.68;;;28.20;;
68214;SDS011;55036;52.138;5.236;2023-05-10T02:04:17;71.80;;;29.60;;
68214;SDS011;55036;52.138;5.236;2023-05-10T02:06:47;74.50;;;29.13;;
68214;SDS011;55036;52.138;5.236;2023-05-10T02:09:15;66.25;;;28.83;;
68214;SDS011;55036;52.138;5.236;2023-05-10T02:11:43;68.65;;;30.05;;
68214;SDS011;55036;52.138;5.236;2023-05-10T02:14:11;67.22;;;27.90;;
68214;SDS011;55036;52.138;5.236;2023-05-10T02:16:38;75.65;;;30.08;;
68214;SDS011;55036;52.138;5.236;2023-05-10T02:19:06;68.18;;;29.13;;
68214;SDS011;55036;52.138;5.236;2023-05-10T02:21:34;78.13;;;29.33;;
68214;SDS011;55036;52.138;5.236;2023-05-10T02:24:02;69.93;;;29.55;;
68214;SDS011;55036;52.138;5.236;2023-05-10T02:26:31;83.90;;;30.67;;
68214;SDS011;55036;52.138;5.236;2023-05-10T02:28:59;113.28;;;30.77;;
68214;SDS011;55036;52.138;5.236;2023-05-10T02:31:32;87.75;;;31.95;;
68214;SDS011;55036;52.138;5.236;2023-05-10T02:34:01;84.75;;;30.33;;
68214;SDS011;55036;52.138;5.236;2023-05-10T02:36:28;88.90;;;29.23;;
68214;SDS011;55036;52.138;5.236;2023-05-10T02:38:56;80.13;;;29.33;;
68214;SDS011;55036;52.138;5.236;2023-05-10T02:41:24;84.63;;;31.08;;
68214;SDS011;55036;52.138;5.236;2023-05-10T02:43:52;80.45;;;29.90;;
68214;SDS011;55036;52.138;5.236;2023-05-10T02:46:23;90.10;;;31.20;;
68214;SDS011;55036;52.138;5.236;2023-05-10T02:48:50;75.63;;;29.10;;
68214;SDS011;55036;52.138;5.236;2023-05-10T02:51:16;95.22;;;32.15;;
68214;SDS011;55036;52.138;5.236;2023-05-10T02:53:45;88.95;;;32.72;;
68214;SDS011;55036;52.138;5.236;2023-05-10T02:56:19;86.70;;;31.13;;
68214;SDS011;55036;52.138;5.236;2023-05-10T02:58:51;86.35;;;31.65;;
68214;SDS011;55036;52.138;5.236;2023-05-10T03:01:18;100.18;;;32.25;;
68214;SDS011;55036;52.138;5.236;2023-05-10T03:03:45;104.60;;;32.65;;
68214;SDS011;55036;52.138;5.236;2023-05-10T03:06:11;97.15;;;32.65;;
68214;SDS011;55036;52.138;5.236;2023-05-10T03:08:38;104.47;;;32.97;;
68214;SDS011;55036;52.138;5.236;2023-05-10T03:14:10;88.20;;;32.40;;
68214;SDS011;55036;52.138;5.236;2023-05-10T03:16:59;89.60;;;32.47;;
68214;SDS011;55036;52.138;5.236;2023-05-10T03:19:36;100.47;;;33.70;;
68214;SDS011;55036;52.138;5.236;2023-05-10T03:22:12;92.13;;;34.83;;
68214;SDS011;55036;52.138;5.236;2023-05-10T03:24:45;88.82;;;33.45;;
68214;SDS011;55036;52.138;5.236;2023-05-10T03:27:13;100.43;;;35.88;;
68214;SDS011;55036;52.138;5.236;2023-05-10T03:29:41;81.38;;;32.03;;
68214;SDS011;55036;52.138;5.236;2023-05-10T03:32:09;83.07;;;33.60;;
68214;SDS011;55036;52.138;5.236;2023-05-10T03:34:40;102.63;;;35.95;;
68214;SDS011;55036;52.138;5.236;2023-05-10T03:37:08;91.18;;;37.03;;
68214;SDS011;55036;52.138;5.236;2023-05-10T03:39:35;90.38;;;35.88;;
68214;SDS011;55036;52.138;5.236;2023-05-10T03:42:02;131.65;;;38.08;;
68214;SDS011;55036;52.138;5.236;2023-05-10T03:44:29;101.60;;;34.75;;
68214;SDS011;55036;52.138;5.236;2023-05-10T03:46:55;107.95;;;35.47;;
68214;SDS011;55036;52.138;5.236;2023-05-10T03:49:23;120.65;;;36.17;;
68214;SDS011;55036;52.138;5.236;2023-05-10T03:51:49;132.90;;;36.60;;
68214;SDS011;55036;52.138;5.236;2023-05-10T03:54:16;84.55;;;32.83;;
68214;SDS011;55036;52.138;5.236;2023-05-10T03:56:43;117.88;;;35.33;;
68214;SDS011;55036;52.138;5.236;2023-05-10T03:59:09;111.10;;;35.08;;
68214;SDS011;55036;52.138;5.236;2023-05-10T04:01:36;107.28;;;36.88;;
68214;SDS011;55036;52.138;5.236;2023-05-10T04:04:03;89.07;;;34.33;;
68214;SDS011;55036;52.138;5.236;2023-05-10T04:06:30;93.03;;;34.00;;
68214;SDS011;55036;52.138;5.236;2023-05-10T04:08:57;84.53;;;32.75;;
68214;SDS011;55036;52.138;5.236;2023-05-10T04:11:25;88.63;;;33.72;;
68214;SDS011;55036;52.138;5.236;2023-05-10T04:13:52;85.78;;;33.15;;
68214;SDS011;55036;52.138;5.236;2023-05-10T04:16:19;76.72;;;30.98;;
68214;SDS011;55036;52.138;5.236;2023-05-10T04:18:46;72.50;;;30.65;;
68214;SDS011;55036;52.138;5.236;2023-05-10T04:21:13;77.80;;;31.13;;
68214;SDS011;55036;52.138;5.236;2023-05-10T04:23:40;89.88;;;34.17;;
68214;SDS011;55036;52.138;5.236;2023-05-10T04:26:07;87.55;;;33.30;;
68214;SDS011;55036;52.138;5.236;2023-05-10T04:28:33;77.20;;;31.60;;
68214;SDS011;55036;52.138;5.236;2023-05-10T04:31:01;72.13;;;31.65;;
68214;SDS011;55036;52.138;5.236;2023-05-10T04:33:33;75.70;;;32.80;;
68214;SDS011;55036;52.138;5.236;2023-05-10T04:36:00;70.38;;;31.38;;
68214;SDS011;55036;52.138;5.236;2023-05-10T04:38:27;84.65;;;33.80;;
68214;SDS011;55036;52.138;5.236;2023-05-10T04:41:03;94.22;;;35.42;;
68214;SDS011;55036;52.138;5.236;2023-05-10T04:43:30;89.90;;;34.67;;
68214;SDS011;55036;52.138;5.236;2023-05-10T04:45:57;92.97;;;34.53;;
68214;SDS011;55036;52.138;5.236;2023-05-10T04:48:24;72.50;;;32.53;;
68214;SDS011;55036;52.138;5.236;2023-05-10T04:50:51;78.75;;;32.15;;
68214;SDS011;55036;52.138;5.236;2023-05-10T04:53:17;66.05;;;29.58;;
68214;SDS011;55036;52.138;5.236;2023-05-10T04:55:44;80.15;;;32.33;;
68214;SDS011;55036;52.138;5.236;2023-05-10T04:58:11;87.70;;;34.80;;
68214;SDS011;55036;52.138;5.236;2023-05-10T05:00:38;85.20;;;34.33;;
68214;SDS011;55036;52.138;5.236;2023-05-10T05:03:04;75.18;;;33.88;;
68214;SDS011;55036;52.138;5.236;2023-05-10T05:05:32;70.90;;;30.08;;
68214;SDS011;55036;52.138;5.236;2023-05-10T05:07:58;66.95;;;29.83;;
68214;SDS011;55036;52.138;5.236;2023-05-10T05:10:25;77.90;;;32.38;;
68214;SDS011;55036;52.138;5.236;2023-05-10T05:12:52;72.65;;;29.63;;
68214;SDS011;55036;52.138;5.236;2023-05-10T05:15:18;85.10;;;31.80;;
68214;SDS011;55036;52.138;5.236;2023-05-10T05:17:45;109.05;;;32.67;;
68214;SDS011;55036;52.138;5.236;2023-05-10T05:20:12;89.90;;;33.08;;
68214;SDS011;55036;52.138;5.236;2023-05-10T05:22:39;87.68;;;32.53;;
68214;SDS011;55036;52.138;5.236;2023-05-10T05:25:06;82.60;;;31.38;;
68214;SDS011;55036;52.138;5.236;2023-05-10T05:27:33;79.05;;;32.42;;
68214;SDS011;55036;52.138;5.236;2023-05-10T05:30:00;69.15;;;30.23;;
68214;SDS011;55036;52.138;5.236;2023-05-10T05:32:26;75.68;;;30.77;;
68214;SDS011;55036;52.138;5.236;2023-05-10T05:34:53;60.58;;;29.15;;
68214;SDS011;55036;52.138;5.236;2023-05-10T05:37:20;68.53;;;30.08;;
68214;SDS011;55036;52.138;5.236;2023-05-10T05:39:50;61.78;;;30.23;;
68214;SDS011;55036;52.138;5.236;2023-05-10T05:42:17;62.80;;;29.83;;
68214;SDS011;55036;52.138;5.236;2023-05-10T05:44:45;65.10;;;28.98;;
68214;SDS011;55036;52.138;5.236;2023-05-10T05:47:11;55.83;;;28.52;;
68214;SDS011;55036;52.138;5.236;2023-05-10T05:49:38;59.60;;;28.25;;
68214;SDS011;55036;52.138;5.236;2023-05-10T05:52:05;54.08;;;27.25;;
68214;SDS011;55036;52.138;5.236;2023-05-10T05:54:32;63.55;;;29.65;;
68214;SDS011;55036;52.138;5.236;2023-05-10T05:56:59;54.08;;;26.70;;
68214;SDS011;55036;52.138;5.236;2023-05-10T05:59:27;59.85;;;28.20;;
68214;SDS011;55036;52.138;5.236;2023-05-10T06:01:53;57.17;;;28.27;;
68214;SDS011;55036;52.138;5.236;2023-05-10T06:04:20;62.17;;;27.33;;
68214;SDS011;55036;52.138;5.236;2023-05-10T06:06:47;58.95;;;26.25;;
68214;SDS011;55036;52.138;5.236;2023-05-10T06:09:14;51.70;;;24.42;;
68214;SDS011;55036;52.138;5.236;2023-05-10T06:11:40;55.83;;;25.20;;
68214;SDS011;55036;52.138;5.236;2023-05-10T06:14:07;47.60;;;22.98;;
68214;SDS011;55036;52.138;5.236;2023-05-10T06:16:34;50.28;;;22.80;;
68214;SDS011;55036;52.138;5.236;2023-05-10T06:19:01;51.25;;;21.60;;
68214;SDS011;55036;52.138;5.236;2023-05-10T06:21:28;47.50;;;20.30;;
68214;SDS011;55036;52.138;5.236;2023-05-10T06:23:56;40.40;;;20.55;;
68214;SDS011;55036;52.138;5.236;2023-05-10T06:26:22;40.08;;;18.08;;
68214;SDS011;55036;52.138;5.236;2023-05-10T06:28:49;38.67;;;17.85;;
68214;SDS011;55036;52.138;5.236;2023-05-10T06:31:16;33.70;;;17.23;;
68214;SDS011;55036;52.138;5.236;2023-05-10T06:33:43;32.00;;;15.45;;
68214;SDS011;55036;52.138;5.236;2023-05-10T06:36:09;25.73;;;13.68;;
68214;SDS011;55036;52.138;5.236;2023-05-10T06:38:36;27.83;;;15.00;;
68214;SDS011;55036;52.138;5.236;2023-05-10T06:41:03;27.35;;;14.98;;
68214;SDS011;55036;52.138;5.236;2023-05-10T06:43:29;27.63;;;13.50;;
68214;SDS011;55036;52.138;5.236;2023-05-10T06:45:56;26.70;;;13.23;;
68214;SDS011;55036;52.138;5.236;2023-05-10T06:48:23;24.25;;;13.48;;
68214;SDS011;55036;52.138;5.236;2023-05-10T06:50:50;21.90;;;12.60;;
68214;SDS011;55036;52.138;5.236;2023-05-10T06:53:16;22.30;;;12.90;;
68214;SDS011;55036;52.138;5.236;2023-05-10T06:55:43;20.58;;;12.82;;
68214;SDS011;55036;52.138;5.236;2023-05-10T06:58:10;21.05;;;12.73;;
68214;SDS011;55036;52.138;5.236;2023-05-10T07:00:37;20.15;;;13.27;;
68214;SDS011;55036;52.138;5.236;2023-05-10T07:03:06;23.02;;;12.90;;
68214;SDS011;55036;52.138;5.236;2023-05-10T07:05:33;21.63;;;12.48;;
68214;SDS011;55036;52.138;5.236;2023-05-10T07:08:00;24.73;;;13.77;;
68214;SDS011;55036;52.138;5.236;2023-05-10T07:10:27;25.05;;;13.20;;
68214;SDS011;55036;52.138;5.236;2023-05-10T07:12:54;24.38;;;13.70;;
68214;SDS011;55036;52.138;5.236;2023-05-10T07:15:21;30.50;;;13.32;;
68214;SDS011;55036;52.138;5.236;2023-05-10T07:17:48;24.13;;;12.93;;
68214;SDS011;55036;52.138;5.236;2023-05-10T07:20:14;24.10;;;13.60;;
68214;SDS011;55036;52.138;5.236;2023-05-10T07:22:41;22.85;;;12.93;;
68214;SDS011;55036;52.138;5.236;2023-05-10T07:25:08;23.83;;;12.88;;
68214;SDS011;55036;52.138;5.236;2023-05-10T07:27:35;18.98;;;13.50;;
68214;SDS011;55036;52.138;5.236;2023-05-10T07:30:02;20.35;;;11.88;;
68214;SDS011;55036;52.138;5.236;2023-05-10T07:32:28;21.05;;;12.82;;
68214;SDS011;55036;52.138;5.236;2023-05-10T07:34:55;22.70;;;13.25;;
68214;SDS011;55036;52.138;5.236;2023-05-10T07:37:22;21.55;;;12.70;;
68214;SDS011;55036;52.138;5.236;2023-05-10T07:39:49;21.02;;;12.30;;
68214;SDS011;55036;52.138;5.236;2023-05-10T07:42:15;20.33;;;11.35;;
68214;SDS011;55036;52.138;5.236;2023-05-10T07:44:42;21.70;;;11.13;;
68214;SDS011;55036;52.138;5.236;2023-05-10T07:47:09;23.15;;;12.07;;
68214;SDS011;55036;52.138;5.236;2023-05-10T07:49:36;21.23;;;12.95;;
68214;SDS011;55036;52.138;5.236;2023-05-10T07:52:03;17.25;;;11.98;;
68214;SDS011;55036;52.138;5.236;2023-05-10T07:54:30;18.42;;;11.45;;
68214;SDS011;55036;52.138;5.236;2023-05-10T07:56:57;16.98;;;11.52;;
68214;SDS011;55036;52.138;5.236;2023-05-10T07:59:24;17.88;;;11.02;;
68214;SDS011;55036;52.138;5.236;2023-05-10T08:01:50;19.77;;;12.10;;
68214;SDS011;55036;52.138;5.236;2023-05-10T08:04:17;14.95;;;11.10;;
68214;SDS011;55036;52.138;5.236;2023-05-10T08:06:44;21.60;;;10.63;;
68214;SDS011;55036;52.138;5.236;2023-05-10T08:09:11;19.52;;;11.48;;
68214;SDS011;55036;52.138;5.236;2023-05-10T08:11:38;19.10;;;12.07;;
68214;SDS011;55036;52.138;5.236;2023-05-10T08:14:04;19.40;;;10.27;;
68214;SDS011;55036;52.138;5.236;2023-05-10T08:16:31;19.75;;;12.10;;
68214;SDS011;55036;52.138;5.236;2023-05-10T08:18:58;18.75;;;11.10;;
68214;SDS011;55036;52.138;5.236;2023-05-10T08:21:25;22.15;;;12.55;;
68214;SDS011;55036;52.138;5.236;2023-05-10T08:23:52;19.50;;;11.63;;
68214;SDS011;55036;52.138;5.236;2023-05-10T08:26:19;20.33;;;11.50;;
68214;SDS011;55036;52.138;5.236;2023-05-10T08:28:47;17.10;;;11.45;;
68214;SDS011;55036;52.138;5.236;2023-05-10T08:31:14;19.67;;;11.18;;
68214;SDS011;55036;52.138;5.236;2023-05-10T08:33:41;16.63;;;11.43;;
68214;SDS011;55036;52.138;5.236;2023-05-10T08:36:10;17.90;;;11.30;;
68214;SDS011;55036;52.138;5.236;2023-05-10T08:38:37;16.98;;;11.85;;
68214;SDS011;55036;52.138;5.236;2023-05-10T08:41:04;19.40;;;12.25;;
68214;SDS011;55036;52.138;5.236;2023-05-10T08:43:32;17.15;;;11.73;;
68214;SDS011;55036;52.138;5.236;2023-05-10T08:46:00;19.90;;;12.15;;
68214;SDS011;55036;52.138;5.236;2023-05-10T08:48:30;17.63;;;12.27;;
68214;SDS011;55036;52.138;5.236;2023-05-10T08:50:58;19.83;;;11.77;;
68214;SDS011;55036;52.138;5.236;2023-05-10T08:53:26;21.17;;;13.07;;
68214;SDS011;55036;52.138;5.236;2023-05-10T08:55:54;16.55;;;12.05;;
68214;SDS011;55036;52.138;5.236;2023-05-10T08:58:21;17.23;;;11.65;;
68214;SDS011;55036;52.138;5.236;2023-05-10T09:00:48;22.58;;;12.70;;
68214;SDS011;55036;52.138;5.236;2023-05-10T09:03:18;18.40;;;11.35;;
68214;SDS011;55036;52.138;5.236;2023-05-10T09:05:45;18.38;;;12.30;;
68214;SDS011;55036;52.138;5.236;2023-05-10T09:08:13;16.75;;;10.55;;
68214;SDS011;55036;52.138;5.236;2023-05-10T09:10:43;16.88;;;9.93;;
68214;SDS011;55036;52.138;5.236;2023-05-10T09:13:10;12.05;;;9.45;;
68214;SDS011;55036;52.138;5.236;2023-05-10T09:15:38;16.48;;;9.52;;
68214;SDS011;55036;52.138;5.236;2023-05-10T09:18:05;13.70;;;9.93;;
68214;SDS011;55036;52.138;5.236;2023-05-10T09:20:32;18.92;;;9.95;;
68214;SDS011;55036;52.138;5.236;2023-05-10T09:22:58;17.23;;;10.68;;
68214;SDS011;55036;52.138;5.236;2023-05-10T09:25:25;14.25;;;9.43;;
68214;SDS011;55036;52.138;5.236;2023-05-10T09:27:53;15.32;;;10.05;;
68214;SDS011;55036;52.138;5.236;2023-05-10T09:30:24;13.65;;;9.75;;
68214;SDS011;55036;52.138;5.236;2023-05-10T09:32:53;14.05;;;9.95;;
68214;SDS011;55036;52.138;5.236;2023-05-10T09:35:21;13.52;;;9.88;;
68214;SDS011;55036;52.138;5.236;2023-05-10T09:37:55;15.60;;;10.63;;
68214;SDS011;55036;52.138;5.236;2023-05-10T09:40:24;14.57;;;9.18;;
68214;SDS011;55036;52.138;5.236;2023-05-10T09:42:55;18.40;;;9.48;;
68214;SDS011;55036;52.138;5.236;2023-05-10T09:45:30;17.48;;;9.55;;
68214;SDS011;55036;52.138;5.236;2023-05-10T09:47:58;13.88;;;9.40;;
68214;SDS011;55036;52.138;5.236;2023-05-10T09:50:26;16.33;;;9.82;;
68214;SDS011;55036;52.138;5.236;2023-05-10T09:52:54;12.57;;;8.55;;
68214;SDS011;55036;52.138;5.236;2023-05-10T09:55:37;12.32;;;8.52;;
68214;SDS011;55036;52.138;5.236;2023-05-10T09:58:06;12.52;;;8.10;;
68214;SDS011;55036;52.138;5.236;2023-05-10T10:00:37;15.30;;;9.25;;
68214;SDS011;55036;52.138;5.236;2023-05-10T10:03:06;11.55;;;8.30;;
68214;SDS011;55036;52.138;5.236;2023-05-10T10:05:38;11.23;;;8.50;;
68214;SDS011;55036;52.138;5.236;2023-05-10T10:08:06;13.52;;;8.68;;
68214;SDS011;55036;52.138;5.236;2023-05-10T10:10:33;13.13;;;8.25;;
68214;SDS011;55036;52.138;5.236;2023-05-10T10:13:00;12.85;;;8.48;;
68214;SDS011;55036;52.138;5.236;2023-05-10T10:15:27;14.45;;;8.63;;
68214;SDS011;55036;52.138;5.236;2023-05-10T10:17:54;12.65;;;8.38;;
68214;SDS011;55036;52.138;5.236;2023-05-10T10:20:21;11.50;;;7.68;;
68214;SDS011;55036;52.138;5.236;2023-05-10T10:22:49;11.73;;;7.63;;
68214;SDS011;55036;52.138;5.236;2023-05-10T10:25:16;11.35;;;7.00;;
68214;SDS011;55036;52.138;5.236;2023-05-10T10:33:01;11.43;;;6.50;;
68214;SDS011;55036;52.138;5.236;2023-05-10T10:35:52;8.73;;;6.28;;
68214;SDS011;55036;52.138;5.236;2023-05-10T10:38:20;10.02;;;5.78;;
68214;SDS011;55036;52.138;5.236;2023-05-10T10:40:48;10.05;;;5.40;;
68214;SDS011;55036;52.138;5.236;2023-05-10T10:43:24;10.70;;;5.43;;
68214;SDS011;55036;52.138;5.236;2023-05-10T10:48:40;8.95;;;4.75;;
68214;SDS011;55036;52.138;5.236;2023-05-10T10:51:18;7.50;;;4.97;;
68214;SDS011;55036;52.138;5.236;2023-05-10T10:53:44;9.75;;;5.20;;
68214;SDS011;55036;52.138;5.236;2023-05-10T10:56:14;8.35;;;5.57;;
68214;SDS011;55036;52.138;5.236;2023-05-10T10:58:42;11.98;;;5.65;;
68214;SDS011;55036;52.138;5.236;2023-05-10T11:01:20;8.95;;;5.47;;
68214;SDS011;55036;52.138;5.236;2023-05-10T11:04:16;11.20;;;5.75;;
68214;SDS011;55036;52.138;5.236;2023-05-10T11:06:43;10.25;;;4.78;;
68214;SDS011;55036;52.138;5.236;2023-05-10T11:09:11;10.73;;;5.13;;
68214;SDS011;55036;52.138;5.236;2023-05-10T11:11:51;9.20;;;4.85;;
68214;SDS011;55036;52.138;5.236;2023-05-10T11:14:21;7.53;;;4.80;;
68214;SDS011;55036;52.138;5.236;2023-05-10T11:16:51;8.70;;;4.25;;
68214;SDS011;55036;52.138;5.236;2023-05-10T11:19:18;8.73;;;4.97;;
68214;SDS011;55036;52.138;5.236;2023-05-10T11:21:47;8.27;;;4.85;;
68214;SDS011;55036;52.138;5.236;2023-05-10T11:24:29;7.13;;;4.93;;
68214;SDS011;55036;52.138;5.236;2023-05-10T11:26:56;5.97;;;4.10;;
68214;SDS011;55036;52.138;5.236;2023-05-10T11:29:22;10.93;;;4.93;;
68214;SDS011;55036;52.138;5.236;2023-05-10T11:31:52;8.00;;;5.30;;
68214;SDS011;55036;52.138;5.236;2023-05-10T11:36:52;9.65;;;4.88;;
68214;SDS011;55036;52.138;5.236;2023-05-10T11:39:29;13.25;;;5.30;;
68214;SDS011;55036;52.138;5.236;2023-05-10T11:41:57;8.93;;;4.60;;
68214;SDS011;55036;52.138;5.236;2023-05-10T11:44:31;9.45;;;4.90;;
68214;SDS011;55036;52.138;5.236;2023-05-10T11:47:01;8.93;;;4.55;;
68214;SDS011;55036;52.138;5.236;2023-05-10T11:49:28;9.20;;;5.30;;
68214;SDS011;55036;52.138;5.236;2023-05-10T11:52:05;10.13;;;4.78;;
68214;SDS011;55036;52.138;5.236;2023-05-10T11:54:33;9.93;;;4.93;;
68214;SDS011;55036;52.138;5.236;2023-05-10T11:57:03;8.57;;;4.88;;
68214;SDS011;55036;52.138;5.236;2023-05-10T11:59:30;11.07;;;4.82;;
68214;SDS011;55036;52.138;5.236;2023-05-10T12:01:57;7.15;;;4.50;;
68214;SDS011;55036;52.138;5.236;2023-05-10T12:04:23;8.68;;;4.95;;
68214;SDS011;55036;52.138;5.236;2023-05-10T12:06:51;6.65;;;5.15;;
68214;SDS011;55036;52.138;5.236;2023-05-10T12:09:18;7.00;;;4.30;;
68214;SDS011;55036;52.138;5.236;2023-05-10T12:12:05;7.22;;;4.63;;
68214;SDS011;55036;52.138;5.236;2023-05-10T12:14:33;8.10;;;4.05;;
68214;SDS011;55036;52.138;5.236;2023-05-10T12:17:01;6.10;;;3.60;;
68214;SDS011;55036;52.138;5.236;2023-05-10T12:19:27;8.98;;;3.65;;
68214;SDS011;55036;52.138;5.236;2023-05-10T12:21:54;6.05;;;3.67;;
68214;SDS011;55036;52.138;5.236;2023-05-10T12:24:21;7.15;;;3.95;;
68214;SDS011;55036;52.138;5.236;2023-05-10T12:26:47;8.35;;;3.38;;
68214;SDS011;55036;52.138;5.236;2023-05-10T12:29:32;7.03;;;3.60;;
68214;SDS011;55036;52.138;5.236;2023-05-10T12:31:59;4.40;;;3.35;;
68214;SDS011;55036;52.138;5.236;2023-05-10T12:34:33;6.68;;;3.53;;
68214;SDS011;55036;52.138;5.236;2023-05-10T12:37:02;6.47;;;4.10;;
68214;SDS011;55036;52.138;5.236;2023-05-10T12:39:39;6.00;;;3.78;;
68214;SDS011;55036;52.138;5.236;2023-05-10T12:42:10;6.72;;;3.17;;
68214;SDS011;55036;52.138;5.236;2023-05-10T12:44:38;6.68;;;3.90;;
68214;SDS011;55036;52.138;5.236;2023-05-10T12:47:04;4.43;;;3.42;;
68214;SDS011;55036;52.138;5.236;2023-05-10T12:49:31;6.13;;;4.10;;
68214;SDS011;55036;52.138;5.236;2023-05-10T12:51:58;5.90;;;4.10;;
68214;SDS011;55036;52.138;5.236;2023-05-10T12:54:25;6.53;;;4.45;;
68214;SDS011;55036;52.138;5.236;2023-05-10T12:56:51;9.95;;;6.20;;
68214;SDS011;55036;52.138;5.236;2023-05-10T12:59:18;11.25;;;7.90;;
68214;SDS011;55036;52.138;5.236;2023-05-10T13:01:45;13.48;;;9.05;;
68214;SDS011;55036;52.138;5.236;2023-05-10T13:04:11;16.33;;;8.98;;
68214;SDS011;55036;52.138;5.236;2023-05-10T13:06:38;15.65;;;9.43;;
68214;SDS011;55036;52.138;5.236;2023-05-10T13:09:05;17.35;;;9.93;;
68214;SDS011;55036;52.138;5.236;2023-05-10T13:11:32;16.27;;;10.32;;
68214;SDS011;55036;52.138;5.236;2023-05-10T13:13:58;20.60;;;10.88;;
68214;SDS011;55036;52.138;5.236;2023-05-10T13:16:25;22.98;;;12.02;;
68214;SDS011;55036;52.138;5.236;2023-05-10T13:18:52;21.25;;;11.68;;
68214;SDS011;55036;52.138;5.236;2023-05-10T13:21:19;26.02;;;12.20;;
68214;SDS011;55036;52.138;5.236;2023-05-10T13:23:46;24.67;;;12.38;;
68214;SDS011;55036;52.138;5.236;2023-05-10T13:26:12;23.92;;;12.73;;
68214;SDS011;55036;52.138;5.236;2023-05-10T13:28:39;19.38;;;11.65;;
68214;SDS011;55036;52.138;5.236;2023-05-10T13:31:06;25.00;;;12.07;;
68214;SDS011;55036;52.138;5.236;2023-05-10T13:33:33;24.00;;;11.18;;
68214;SDS011;55036;52.138;5.236;2023-05-10T13:36:00;19.80;;;10.93;;
68214;SDS011;55036;52.138;5.236;2023-05-10T13:38:27;19.88;;;10.82;;
68214;SDS011;55036;52.138;5.236;2023-05-10T13:40:53;21.55;;;11.07;;
68214;SDS011;55036;52.138;5.236;2023-05-10T13:43:20;22.15;;;11.00;;
68214;SDS011;55036;52.138;5.236;2023-05-10T13:45:46;20.83;;;10.90;;
68214;SDS011;55036;52.138;5.236;2023-05-10T13:48:13;17.50;;;10.50;;
68214;SDS011;55036;52.138;5.236;2023-05-10T13:50:40;22.63;;;11.13;;
68214;SDS011;55036;52.138;5.236;2023-05-10T13:53:07;17.95;;;10.43;;
68214;SDS011;55036;52.138;5.236;2023-05-10T13:55:33;21.30;;;10.60;;
68214;SDS011;55036;52.138;5.236;2023-05-10T13:58:00;16.67;;;9.60;;
68214;SDS011;55036;52.138;5.236;2023-05-10T14:00:26;21.75;;;10.93;;
68214;SDS011;55036;52.138;5.236;2023-05-10T14:02:53;19.65;;;10.55;;
68214;SDS011;55036;52.138;5.236;2023-05-10T14:05:20;16.90;;;9.90;;
68214;SDS011;55036;52.138;5.236;2023-05-10T14:07:51;19.23;;;10.10;;
68214;SDS011;55036;52.138;5.236;2023-05-10T14:10:17;16.88;;;10.57;;
68214;SDS011;55036;52.138;5.236;2023-05-10T14:12:44;14.85;;;9.10;;
68214;SDS011;55036;52.138;5.236;2023-05-10T14:15:11;16.58;;;10.10;;
68214;SDS011;55036;52.138;5.236;2023-05-10T14:17:37;19.73;;;9.73;;
68214;SDS011;55036;52.138;5.236;2023-05-10T14:20:04;17.20;;;9.88;;
68214;SDS011;55036;52.138;5.236;2023-05-10T14:22:32;14.18;;;8.88;;
68214;SDS011;55036;52.138;5.236;2023-05-10T14:24:58;15.52;;;9.13;;
68214;SDS011;55036;52.138;5.236;2023-05-10T14:27:25;14.00;;;8.77;;
68214;SDS011;55036;52.138;5.236;2023-05-10T14:29:52;13.90;;;9.10;;
68214;SDS011;55036;52.138;5.236;2023-05-10T14:32:20;15.43;;;9.50;;
68214;SDS011;55036;52.138;5.236;2023-05-10T14:34:46;16.73;;;9.25;;
68214;SDS011;55036;52.138;5.236;2023-05-10T14:37:13;16.55;;;9.27;;
68214;SDS011;55036;52.138;5.236;2023-05-10T14:39:41;16.67;;;9.50;;
68214;SDS011;55036;52.138;5.236;2023-05-10T14:42:08;15.88;;;9.45;;
68214;SDS011;55036;52.138;5.236;2023-05-10T14:44:35;18.13;;;10.23;;
68214;SDS011;55036;52.138;5.236;2023-05-10T14:47:01;14.80;;;9.20;;
68214;SDS011;55036;52.138;5.236;2023-05-10T14:49:28;14.45;;;9.20;;
68214;SDS011;55036;52.138;5.236;2023-05-10T14:51:55;13.68;;;8.30;;
68214;SDS011;55036;52.138;5.236;2023-05-10T14:54:21;13.80;;;8.48;;
68214;SDS011;55036;52.138;5.236;2023-05-10T14:56:48;12.85;;;8.65;;
68214;SDS011;55036;52.138;5.236;2023-05-10T14:59:16;14.93;;;9.55;;
68214;SDS011;55036;52.138;5.236;2023-05-10T15:01:43;15.20;;;9.13;;
68214;SDS011;55036;52.138;5.236;2023-05-10T15:04:10;15.95;;;9.80;;
68214;SDS011;55036;52.138;5.236;2023-05-10T15:06:39;12.93;;;8.10;;
68214;SDS011;55036;52.138;5.236;2023-05-10T15:09:06;10.77;;;6.88;;
68214;SDS011;55036;52.138;5.236;2023-05-10T15:11:33;12.57;;;7.80;;
68214;SDS011;55036;52.138;5.236;2023-05-10T15:13:59;9.82;;;6.95;;
68214;SDS011;55036;52.138;5.236;2023-05-10T15:16:27;11.23;;;6.55;;
68214;SDS011;55036;52.138;5.236;2023-05-10T15:18:54;9.07;;;6.47;;
68214;SDS011;55036;52.138;5.236;2023-05-10T15:21:21;10.00;;;6.75;;
68214;SDS011;55036;52.138;5.236;2023-05-10T15:23:47;10.65;;;6.45;;
68214;SDS011;55036;52.138;5.236;2023-05-10T15:26:15;10.68;;;6.60;;
68214;SDS011;55036;52.138;5.236;2023-05-10T15:28:41;13.05;;;6.75;;
68214;SDS011;55036;52.138;5.236;2023-05-10T15:31:08;11.90;;;7.50;;